Time;durP1;ratioP1;P1;durP2;ratioP2;P2;SDS_P1;SDS_P2;PMS_P1;PMS_P2;Temp;Humidity;BMP_temperature;BMP_pressure;BME280_temperature;BME280_humidity;BME280_pressure;Samples;Min_cycle;Max_cycle;Signal;HPM_P1;HPM_P2
2022/05/01 00:03:36;;;;;;;3.63;2.77;;;;;;;17.17;51.83;97066.75;10327441;28;20045;-24
2022/05/01 00:08:39;;;;;;;3.00;2.67;;;;;;;17.18;51.54;97068.47;10360669;28;20042;-22
2022/05/01 00:13:42;;;;;;;2.75;2.55;;;;;;;17.17;51.81;97061.69;10335186;28;20117;-23
2022/05/01 00:18:44;;;;;;;3.67;2.47;;;;;;;17.11;51.76;97049.00;10362132;28;20029;-23
2022/05/01 00:23:45;;;;;;;2.75;2.55;;;;;;;17.19;51.57;97066.78;10367323;28;20261;-24
2022/05/01 00:28:45;;;;;;;4.43;2.93;;;;;;;17.33;53.05;97063.53;10338214;28;20061;-24
2022/05/01 00:39:06;;;;;;;3.65;3.35;;;;;;;17.37;51.70;97060.25;10335041;28;20537;-23
2022/05/01 00:44:11;;;;;;;3.15;2.85;;;;;;;17.25;51.20;97052.50;10333686;28;20037;-23
2022/05/01 00:49:18;;;;;;;3.30;3.00;;;;;;;17.18;51.42;97042.31;10334417;28;20037;-23
2022/05/01 00:54:22;;;;;;;3.00;2.70;;;;;;;17.22;51.38;97051.63;10333432;28;20057;-24
2022/05/01 00:59:23;;;;;;;3.35;2.45;;;;;;;17.21;51.72;97047.38;10370776;28;20026;-22
2022/05/01 01:04:23;;;;;;;3.00;2.70;;;;;;;17.18;51.41;97043.19;10363960;28;20449;-23
2022/05/01 01:09:24;;;;;;;3.75;2.92;;;;;;;17.20;51.17;97038.09;10333721;28;20077;-23
2022/05/01 01:14:24;;;;;;;3.23;3.00;;;;;;;17.21;51.33;97042.34;10335188;28;20461;-23
2022/05/01 01:19:25;;;;;;;3.00;2.70;;;;;;;17.18;51.03;97034.72;10372505;28;20365;-23
2022/05/01 01:24:26;;;;;;;3.03;2.73;;;;;;;17.19;51.37;97033.88;10373500;28;20045;-24
2022/05/01 01:34:49;;;;;;;4.13;2.78;;;;;;;17.40;52.44;97034.13;10397002;28;20101;-23
2022/05/01 01:39:51;;;;;;;3.28;2.67;;;;;;;17.33;51.05;97032.34;10331709;28;20038;-24
2022/05/01 01:44:53;;;;;;;3.45;3.10;;;;;;;17.11;50.97;97010.19;10372371;28;20507;-22
2022/05/01 01:49:53;;;;;;;2.92;2.55;;;;;;;17.24;51.42;97032.25;10369115;28;20113;-23
2022/05/01 01:54:54;;;;;;;3.03;2.73;;;;;;;17.20;51.08;97028.00;10331014;28;20035;-23
2022/05/01 01:59:54;;;;;;;3.27;2.97;;;;;;;17.21;51.14;97034.75;10331643;28;20034;-22
2022/05/01 02:04:54;;;;;;;3.33;3.03;;;;;;;17.19;51.01;97028.81;10330150;28;20046;-22
2022/05/01 02:09:55;;;;;;;3.13;2.83;;;;;;;17.18;51.03;97017.00;10330430;28;20080;-23
2022/05/01 02:14:55;;;;;;;3.50;2.67;;;;;;;17.17;51.18;97020.38;10336761;28;20041;-23
2022/05/01 02:19:56;;;;;;;3.45;2.70;;;;;;;17.17;51.00;97022.91;10348752;28;20095;-25
2022/05/01 02:24:56;;;;;;;2.83;2.63;;;;;;;17.20;51.18;97025.47;10329743;28;20034;-24
2022/05/01 02:29:56;;;;;;;2.30;2.10;;;;;;;17.35;52.57;97015.50;10339578;28;20041;-23
2022/05/01 02:34:57;;;;;;;2.80;2.60;;;;;;;17.39;51.25;97009.63;10374414;28;20301;-23
2022/05/01 02:39:57;;;;;;;3.50;3.20;;;;;;;17.31;50.61;97003.66;10329090;28;20128;-23
2022/05/01 02:44:59;;;;;;;2.90;2.70;;;;;;;17.25;50.87;97003.59;10328852;28;20042;-24
2022/05/01 02:50:00;;;;;;;3.10;2.80;;;;;;;17.21;50.76;97001.84;10329116;28;20034;-23
2022/05/01 02:55:00;;;;;;;3.47;3.13;;;;;;;17.20;50.92;97000.16;10328256;28;20034;-22
2022/05/01 03:00:04;;;;;;;2.53;2.33;;;;;;;17.19;50.79;96994.25;10329442;28;20390;-22
2022/05/01 03:05:05;;;;;;;3.33;3.03;;;;;;;17.18;50.71;96986.66;10328872;28;20321;-25
2022/05/01 03:10:07;;;;;;;3.92;2.90;;;;;;;17.18;50.52;96994.25;10330572;28;20487;-23
2022/05/01 03:15:08;;;;;;;3.05;2.78;;;;;;;17.11;50.62;96979.84;10368974;28;20042;-23
2022/05/01 03:25:28;;;;;;;3.03;2.78;;;;;;;17.25;50.53;96989.25;10328066;28;20048;-23
2022/05/01 03:30:29;;;;;;;2.33;2.13;;;;;;;17.36;53.10;96992.75;10346475;28;20403;-23
2022/05/01 03:35:29;;;;;;;2.70;2.50;;;;;;;17.28;50.58;96970.72;10387354;28;20293;-23
2022/05/01 03:40:30;;;;;;;2.63;2.43;;;;;;;17.28;50.40;96994.34;10327491;28;20514;-23
2022/05/01 03:45:30;;;;;;;3.33;2.78;;;;;;;17.17;50.52;96980.72;10326574;28;20493;-23
2022/05/01 03:50:31;;;;;;;2.70;2.50;;;;;;;17.21;50.64;96987.53;10345876;28;20033;-23
2022/05/01 03:55:33;;;;;;;3.93;2.80;;;;;;;17.20;50.57;96984.97;10360970;28;20022;-23
2022/05/01 04:00:35;;;;;;;3.72;2.70;;;;;;;17.17;50.45;96992.56;10327890;28;20101;-23
2022/05/01 04:05:35;;;;;;;3.08;2.63;;;;;;;17.18;50.36;96994.25;10333524;28;20058;-23
2022/05/01 04:10:43;;;;;;;3.80;2.87;;;;;;;17.19;50.20;96984.16;10335408;28;20066;-24
2022/05/01 04:15:44;;;;;;;3.42;2.85;;;;;;;17.15;50.35;96981.56;10347789;28;20451;-23
2022/05/01 04:20:46;;;;;;;3.00;2.80;;;;;;;17.17;50.21;96990.03;10348252;28;20034;-24
2022/05/01 04:25:47;;;;;;;3.38;3.08;;;;;;;17.25;50.32;96993.47;10334698;28;20035;-24
2022/05/01 04:30:50;;;;;;;2.92;2.47;;;;;;;17.36;52.94;96987.72;10358761;28;20482;-23
2022/05/01 04:35:51;;;;;;;3.10;2.47;;;;;;;17.37;50.48;96996.13;10382984;28;20054;-23
2022/05/01 04:40:53;;;;;;;2.78;2.58;;;;;;;17.27;49.88;96990.13;10334139;28;20058;-25
2022/05/01 04:45:56;;;;;;;2.75;2.55;;;;;;;17.24;49.93;96992.59;10333786;28;20097;-22
2022/05/01 04:50:57;;;;;;;2.72;2.53;;;;;;;17.21;50.27;96996.78;10360782;28;20132;-25
2022/05/01 04:57:04;;;;;;;3.55;2.80;;;;;;;17.22;50.12;97004.41;10363876;28;20416;-24
2022/05/01 05:01:19;;;;;;;2.65;2.45;;;;;;;17.19;50.10;96999.31;10333778;28;20058;-24
2022/05/01 05:06:21;;;;;;;4.75;2.90;;;;;;;17.10;49.92;96998.38;10332936;28;20035;-22
2022/05/01 05:11:21;;;;;;;3.35;3.05;;;;;;;17.19;49.79;97006.06;10346284;28;20038;-23
2022/05/01 05:16:22;;;;;;;2.80;2.60;;;;;;;17.20;49.94;97012.81;10372174;28;20092;-23
2022/05/01 05:21:22;;;;;;;3.20;2.80;;;;;;;17.22;49.83;97013.66;10339094;28;20045;-23
2022/05/01 05:26:22;;;;;;;3.42;2.40;;;;;;;17.25;49.81;97018.78;10331932;28;20031;-22
2022/05/01 05:31:23;;;;;;;2.63;2.17;;;;;;;17.36;50.47;97022.28;10365749;28;20092;-23
2022/05/01 05:36:23;;;;;;;3.30;3.00;;;;;;;17.00;49.75;97019.38;10368429;28;20065;-22
2022/05/01 05:41:23;;;;;;;3.10;2.90;;;;;;;16.89;49.57;97023.47;10339280;28;20046;-23
2022/05/01 05:46:24;;;;;;;3.87;3.20;;;;;;;16.78;49.07;97022.47;10330760;28;20056;-24
2022/05/01 05:51:24;;;;;;;3.53;3.07;;;;;;;16.81;49.35;97022.53;10360512;28;21098;-23
2022/05/01 05:56:25;;;;;;;3.38;3.03;;;;;;;16.75;48.74;97027.50;10357237;28;20312;-23
2022/05/01 06:01:25;;;;;;;3.75;3.38;;;;;;;16.73;48.83;97023.25;10337687;28;20042;-23
2022/05/01 06:06:26;;;;;;;4.10;3.70;;;;;;;16.54;48.64;97029.75;10369545;28;20091;-23
2022/05/01 06:11:27;;;;;;;5.65;4.88;;;;;;;16.52;48.56;97026.38;10357461;28;20030;-25
2022/05/01 06:16:27;;;;;;;7.13;4.45;;;;;;;16.36;48.57;97024.44;10348883;28;20045;-24
2022/05/01 06:21:28;;;;;;;6.05;5.22;;;;;;;16.18;48.52;97021.69;10346304;28;20039;-23
2022/05/01 06:26:28;;;;;;;5.27;4.67;;;;;;;16.08;48.19;97026.56;10329028;28;20104;-24
2022/05/01 06:31:29;;;;;;;5.47;4.83;;;;;;;16.21;48.34;97028.47;10364634;28;20284;-23
2022/05/01 06:36:29;;;;;;;7.50;4.63;;;;;;;16.21;49.05;97031.81;10351073;28;20035;-22
2022/05/01 06:41:30;;;;;;;4.50;4.10;;;;;;;16.03;49.43;97026.50;10353855;28;20038;-21
2022/05/01 06:46:30;;;;;;;6.25;5.40;;;;;;;15.98;49.28;97032.34;10354046;28;20141;-21
2022/05/01 06:51:31;;;;;;;6.93;5.40;;;;;;;15.95;49.25;97035.66;10344331;28;20639;-23
2022/05/01 06:56:31;;;;;;;8.57;5.37;;;;;;;15.89;49.90;97028.00;10328504;28;20393;-23
2022/05/01 07:01:31;;;;;;;8.27;5.27;;;;;;;15.88;50.14;97026.28;10328849;28;20497;-23
2022/05/01 07:06:32;;;;;;;8.23;4.28;;;;;;;15.91;51.31;97028.88;10328148;28;20172;-24
2022/05/01 07:11:32;;;;;;;7.30;5.97;;;;;;;15.78;52.67;97026.16;10348019;28;20029;-23
2022/05/01 07:16:32;;;;;;;5.97;5.37;;;;;;;15.70;51.91;97020.13;10376240;28;20037;-23
2022/05/01 07:21:33;;;;;;;12.40;5.80;;;;;;;15.68;51.95;97009.16;10370333;28;20124;-26
2022/05/01 07:26:34;;;;;;;6.63;5.93;;;;;;;15.71;51.75;97014.25;10364612;28;20057;-23
2022/05/01 07:31:34;;;;;;;7.70;5.90;;;;;;;15.77;51.18;97010.13;10369847;28;20300;-22
2022/05/01 07:36:35;;;;;;;6.53;5.93;;;;;;;15.79;51.35;96998.38;10356613;28;20026;-22
2022/05/01 07:41:36;;;;;;;5.90;5.03;;;;;;;16.05;50.38;96994.59;10366625;28;20168;-22
2022/05/01 07:46:38;;;;;;;6.75;6.13;;;;;;;15.97;50.59;96987.72;10371416;28;20057;-23
2022/05/01 07:51:40;;;;;;;6.30;5.03;;;;;;;16.06;50.65;96990.34;10365737;28;20034;-23
2022/05/01 07:56:40;;;;;;;10.73;5.60;;;;;;;16.25;50.70;96994.81;10356392;28;20030;-23
2022/05/01 08:01:40;;;;;;;9.93;5.67;;;;;;;16.36;50.64;96990.78;10383635;28;20456;-23
2022/05/01 08:06:41;;;;;;;5.60;5.10;;;;;;;16.40;50.26;96984.94;10350578;28;20305;-22
2022/05/01 08:11:41;;;;;;;5.78;4.32;;;;;;;16.32;50.05;96986.50;10354423;28;20150;-22
2022/05/01 08:16:42;;;;;;;5.38;4.85;;;;;;;16.37;50.56;96984.91;10366514;28;20038;-22
2022/05/01 08:21:43;;;;;;;6.03;5.43;;;;;;;16.35;50.47;96989.09;10342496;28;20117;-22
2022/05/01 08:26:47;;;;;;;5.53;5.03;;;;;;;16.45;50.11;96979.13;10326082;28;20207;-23
2022/05/01 08:31:48;;;;;;;6.25;4.80;;;;;;;16.42;50.24;96984.16;10367120;28;20280;-22
2022/05/01 08:36:48;;;;;;;6.55;5.43;;;;;;;16.61;50.00;96986.03;10355345;28;20034;-22
2022/05/01 08:41:49;;;;;;;6.23;5.30;;;;;;;16.69;50.08;96986.16;10326434;28;20108;-24
2022/05/01 08:47:17;;;;;;;7.28;5.30;;;;;;;16.55;50.41;96985.13;10326870;28;20045;-23
2022/05/01 08:52:21;;;;;;;6.05;5.07;;;;;;;16.43;50.41;96970.66;10334095;28;20046;-23
2022/05/01 08:57:21;;;;;;;6.38;4.90;;;;;;;16.50;50.70;96979.16;10354591;28;20030;-23
2022/05/01 09:02:22;;;;;;;5.63;5.00;;;;;;;16.41;51.06;96992.56;10374415;28;20034;-22
2022/05/01 09:07:22;;;;;;;6.53;5.93;;;;;;;16.40;51.26;96987.47;10347425;28;20340;-22
2022/05/01 09:18:05;;;;;;;5.65;5.07;;;;;;;16.39;50.96;96985.78;10360708;28;20269;-23
2022/05/01 09:23:06;;;;;;;7.70;4.93;;;;;;;16.32;51.43;96989.88;10332628;28;20038;-22
2022/05/01 09:28:23;;;;;;;4.78;4.35;;;;;;;16.35;51.00;96992.44;10332542;28;20169;-24
2022/05/01 09:33:24;;;;;;;5.80;5.18;;;;;;;16.10;51.23;96990.44;10398331;28;20037;-24
2022/05/01 09:38:26;;;;;;;5.78;5.15;;;;;;;16.43;50.48;96990.88;10374709;28;20044;-23
2022/05/01 09:43:35;;;;;;;6.72;5.13;;;;;;;16.44;50.47;96994.28;10342127;28;20121;-23
2022/05/01 09:48:36;;;;;;;5.88;4.93;;;;;;;16.27;51.07;96988.97;10331990;28;20417;-24
2022/05/01 09:53:43;;;;;;;5.33;4.83;;;;;;;16.21;50.61;96983.00;10331317;28;20049;-24
2022/05/01 09:58:43;;;;;;;5.60;4.97;;;;;;;16.24;50.92;96983.88;10363531;28;20092;-23
2022/05/01 10:03:46;;;;;;;5.87;5.17;;;;;;;16.24;50.46;96978.84;10360649;28;20045;-22
2022/05/01 10:08:47;;;;;;;8.02;5.30;;;;;;;16.32;50.78;96974.72;10331255;28;20298;-23
2022/05/01 10:13:47;;;;;;;5.85;5.25;;;;;;;16.43;50.57;96970.66;10331218;28;20034;-23
2022/05/01 10:18:48;;;;;;;7.17;5.33;;;;;;;16.53;50.24;96964.88;10368186;28;20396;-23
2022/05/01 10:23:49;;;;;;;6.95;6.25;;;;;;;16.40;50.72;96964.72;10331962;28;20289;-23
2022/05/01 10:29:08;;;;;;;8.50;5.55;;;;;;;16.38;50.95;96954.59;10330626;28;20027;-22
2022/05/01 10:34:31;;;;;;;7.80;5.35;;;;;;;16.59;50.45;96954.84;10389743;28;20122;-22
2022/05/01 10:39:38;;;;;;;8.63;5.90;;;;;;;16.58;50.79;96955.69;10328930;28;20081;-23
2022/05/01 10:44:40;;;;;;;6.25;5.53;;;;;;;16.61;50.57;96940.56;10329489;28;20101;-22
2022/05/01 10:49:42;;;;;;;10.10;6.20;;;;;;;16.57;50.64;96938.84;10329675;28;20042;-24
2022/05/01 10:54:59;;;;;;;6.22;5.47;;;;;;;16.57;50.66;96937.97;10329195;28;20042;-23
2022/05/01 11:00:04;;;;;;;;;;;;;;;16.66;50.92;96935.53;10329569;28;20378;-23
2022/05/01 11:05:07;;;;;;;9.30;6.05;;;;;;;16.51;50.57;96930.31;10332818;28;19917;-22
2022/05/01 11:10:10;;;;;;;7.13;6.15;;;;;;;16.50;50.91;96929.50;10366208;28;20042;-22
2022/05/01 11:15:10;;;;;;;7.90;6.22;;;;;;;16.44;50.92;96926.88;10336125;28;20048;-23
2022/05/01 11:20:14;;;;;;;7.18;6.25;;;;;;;16.49;51.13;96919.34;10368028;28;20030;-22
2022/05/01 11:25:18;;;;;;;6.28;5.68;;;;;;;16.38;51.22;96923.44;10364219;28;20056;-23
2022/05/01 11:30:27;;;;;;;6.72;5.75;;;;;;;16.38;51.35;96914.16;10343713;28;20037;-23
2022/05/01 11:36:00;;;;;;;6.63;5.65;;;;;;;16.65;50.46;96916.16;10360019;28;20049;-22
2022/05/01 11:41:02;;;;;;;9.75;6.82;;;;;;;16.36;51.06;96899.81;10327393;28;20041;-22
2022/05/01 11:46:17;;;;;;;9.20;6.82;;;;;;;16.56;50.67;96901.75;10327129;28;20042;-22
2022/05/01 11:51:17;;;;;;;7.13;6.22;;;;;;;16.52;50.44;96902.53;10328036;28;20084;-22
2022/05/01 12:07:09;;;;;;;6.80;6.15;;;;;;;16.41;51.31;96886.44;10341310;28;20038;-23
2022/05/01 12:12:11;;;;;;;;;;;;;;;16.31;51.35;96881.22;10327495;28;20197;-22
2022/05/01 12:17:15;;;;;;;7.93;5.95;;;;;;;16.45;51.13;96872.97;10351308;28;19920;-22
2022/05/01 12:22:20;;;;;;;12.20;6.63;;;;;;;16.33;51.50;96872.84;10365905;28;20034;-22
2022/05/01 12:27:25;;;;;;;8.55;6.63;;;;;;;16.43;50.66;96869.59;10354449;28;20117;-23
2022/05/01 12:32:26;;;;;;;8.27;6.15;;;;;;;16.48;50.89;96873.03;10384556;28;20115;-23
2022/05/01 12:37:34;;;;;;;8.13;6.40;;;;;;;16.46;50.87;96869.63;10341798;28;20035;-23
2022/05/01 12:48:06;;;;;;;12.55;7.65;;;;;;;16.47;51.19;96856.19;10374727;28;20514;-22
2022/05/01 12:53:30;;;;;;;6.55;5.70;;;;;;;16.75;50.77;96853.06;10339661;28;20257;-23
2022/05/01 12:58:33;;;;;;;7.90;5.55;;;;;;;16.82;50.63;96858.19;10333890;28;20041;-22
2022/05/01 13:03:38;;;;;;;9.18;6.78;;;;;;;16.73;50.75;96857.28;10333114;28;20065;-22
2022/05/01 13:08:40;;;;;;;7.93;6.05;;;;;;;16.68;50.37;96851.31;10332890;28;20038;-23
2022/05/01 13:13:54;;;;;;;9.32;5.78;;;;;;;16.78;50.60;96835.38;10332410;28;20036;-24
2022/05/01 13:18:55;;;;;;;8.52;5.72;;;;;;;16.84;50.65;96825.31;10364919;28;20022;-22
2022/05/01 13:24:00;;;;;;;7.10;5.75;;;;;;;16.90;50.89;96833.81;10332117;28;20141;-24
2022/05/01 13:29:02;;;;;;;7.07;5.50;;;;;;;16.94;50.99;96822.03;10332266;28;20045;-23
2022/05/01 13:34:03;;;;;;;5.38;4.55;;;;;;;17.00;51.35;96824.63;10389821;28;20030;-22
2022/05/01 13:39:06;;;;;;;9.00;5.30;;;;;;;16.93;51.22;96812.75;10331294;28;20034;-22
2022/05/01 13:49:26;;;;;;;6.30;5.03;;;;;;;16.85;51.33;96805.13;10331584;28;20121;-22
2022/05/01 13:54:26;;;;;;;7.20;4.82;;;;;;;16.73;51.04;96806.72;10331754;28;20053;-22
2022/05/01 13:59:27;;;;;;;5.82;4.30;;;;;;;16.98;52.72;96793.41;10331066;28;20041;-23
2022/05/01 14:04:28;;;;;;;6.75;5.15;;;;;;;16.86;50.83;96783.19;10345224;28;20044;-22
2022/05/01 14:09:28;;;;;;;6.32;5.38;;;;;;;16.83;50.34;96780.66;10371605;28;20069;-22
2022/05/01 14:14:28;;;;;;;6.53;5.18;;;;;;;16.78;50.61;96779.75;10334699;28;20038;-23
2022/05/01 14:19:30;;;;;;;6.17;5.17;;;;;;;16.71;50.26;96759.50;10371111;28;20036;-24
2022/05/01 14:24:34;;;;;;;6.13;4.75;;;;;;;16.74;50.74;96775.53;10331139;28;20038;-23
2022/05/01 14:29:34;;;;;;;6.88;4.45;;;;;;;16.89;52.59;96771.41;10333660;28;20043;-23
2022/05/01 14:34:42;;;;;;;5.33;4.70;;;;;;;16.87;51.03;96757.94;10394545;28;20104;-22
2022/05/01 14:39:43;;;;;;;5.57;4.50;;;;;;;16.86;51.38;96756.25;10370239;28;20026;-23
2022/05/01 14:44:57;;;;;;;5.90;4.45;;;;;;;16.77;50.96;96761.25;10329996;28;20045;-23
2022/05/01 14:50:02;;;;;;;6.07;4.55;;;;;;;16.74;50.74;96755.31;10329808;28;20035;-23
2022/05/01 14:55:06;;;;;;;5.45;4.65;;;;;;;16.75;50.98;96757.81;10329401;28;20030;-22
2022/05/01 15:10:47;;;;;;;5.45;4.80;;;;;;;16.77;50.21;96742.69;10360853;28;20371;-22
2022/05/01 15:16:29;;;;;;;6.68;5.05;;;;;;;16.82;50.19;96741.03;10341658;28;20030;-23
2022/05/01 15:22:20;;;;;;;6.93;4.78;;;;;;;16.78;50.40;96735.13;10362922;28;20037;-22
2022/05/01 15:26:57;;;;;;;4.93;3.90;;;;;;;16.85;50.92;96734.31;10333344;28;20049;-23
2022/05/01 15:31:58;;;;;;;6.10;4.32;;;;;;;16.78;50.72;96731.72;10370769;28;20033;-22
2022/05/01 15:36:58;;;;;;;4.63;3.78;;;;;;;16.77;51.84;96724.97;10356104;28;20030;-22
2022/05/01 15:42:03;;;;;;;5.80;4.20;;;;;;;16.77;50.92;96728.38;10326869;28;20034;-22
2022/05/01 15:47:06;;;;;;;5.05;4.25;;;;;;;16.73;50.66;96723.28;10327035;28;20540;-22
2022/05/01 15:57:31;;;;;;;5.13;4.07;;;;;;;16.91;52.61;96719.16;10345406;28;20034;-22
2022/05/01 16:02:33;;;;;;;6.15;4.30;;;;;;;16.91;51.21;96729.28;10326434;28;20535;-23
2022/05/01 16:07:48;;;;;;;4.53;3.80;;;;;;;17.10;53.71;96727.72;10327707;28;20535;-22
2022/05/01 16:13:05;;;;;;;4.13;3.72;;;;;;;17.03;51.29;96726.84;10326283;28;20525;-22
2022/05/01 16:18:34;;;;;;;4.85;4.03;;;;;;;16.99;50.62;96724.28;10358381;28;20497;-23
2022/05/01 16:23:52;;;;;;;6.85;4.35;;;;;;;16.88;50.30;96725.88;10366624;28;20042;-23
2022/05/01 16:29:05;;;;;;;6.60;4.53;;;;;;;16.83;50.39;96730.09;10333655;28;20046;-24
2022/05/01 16:34:18;;;;;;;7.05;5.30;;;;;;;16.85;50.53;96723.34;10389423;28;20488;-23
2022/05/01 16:39:18;;;;;;;4.30;3.88;;;;;;;16.93;51.03;96719.19;10326277;28;20117;-22
2022/05/01 16:44:21;;;;;;;4.22;3.83;;;;;;;16.95;50.64;96722.56;10326239;28;20041;-25
2022/05/01 16:49:23;;;;;;;6.07;4.28;;;;;;;16.92;50.86;96717.50;10326833;28;20030;-22
2022/05/01 16:54:25;;;;;;;4.40;4.00;;;;;;;16.98;50.84;96717.53;10325640;28;20046;-22
2022/05/01 16:59:28;;;;;;;4.72;3.95;;;;;;;16.95;50.99;96723.44;10325682;28;20038;-23
2022/05/01 17:04:43;;;;;;;4.50;4.10;;;;;;;16.85;51.02;96708.19;10325796;28;20036;-22
2022/05/01 17:09:57;;;;;;;5.43;4.47;;;;;;;16.90;51.11;96711.59;10325849;28;20037;-23
2022/05/01 17:15:04;;;;;;;4.18;3.65;;;;;;;17.12;54.06;96726.91;10339272;28;20046;-21
2022/05/01 17:20:10;;;;;;;4.40;4.00;;;;;;;17.09;51.48;96726.84;10370890;28;20474;-23
2022/05/01 17:25:15;;;;;;;4.38;3.92;;;;;;;16.96;50.95;96726.78;10369618;28;20038;-22
2022/05/01 17:30:16;;;;;;;4.80;4.30;;;;;;;16.91;51.21;96724.22;10346835;28;20041;-22
2022/05/01 17:35:17;;;;;;;4.78;4.07;;;;;;;16.81;51.34;96729.25;10375074;28;20038;-23
2022/05/01 17:40:18;;;;;;;4.78;4.25;;;;;;;16.79;51.18;96744.38;10332495;28;20033;-24
2022/05/01 17:45:21;;;;;;;4.55;4.15;;;;;;;16.88;50.80;96752.03;10332022;28;20038;-22
2022/05/01 17:50:24;;;;;;;4.68;3.97;;;;;;;16.89;51.16;96745.31;10331570;28;20069;-23
2022/05/01 17:55:26;;;;;;;4.22;3.83;;;;;;;16.85;51.34;96741.91;10329477;28;20066;-22
2022/05/01 18:00:26;;;;;;;4.97;3.67;;;;;;;16.86;51.77;96750.31;10341253;28;20095;-24
2022/05/01 18:11:10;;;;;;;7.07;4.65;;;;;;;16.70;51.89;96748.53;10329502;28;20501;-22
2022/05/01 18:16:28;;;;;;;;;;;;;;;16.96;52.71;96762.19;10361048;28;20117;-23
2022/05/01 18:22:00;;;;;;;5.55;3.72;;;;;;;17.10;54.55;96761.47;10354665;28;20015;-22
2022/05/01 18:27:03;;;;;;;5.82;3.85;;;;;;;17.11;51.41;96769.88;10359821;28;20153;-23
2022/05/01 18:32:19;;;;;;;4.28;3.88;;;;;;;17.07;51.18;96763.94;10364669;28;20037;-23
2022/05/01 18:37:28;;;;;;;3.92;3.53;;;;;;;17.01;51.42;96752.97;10351281;28;20033;-22
2022/05/01 18:42:32;;;;;;;4.32;3.92;;;;;;;17.05;51.61;96773.22;10343421;28;20594;-22
2022/05/01 18:47:38;;;;;;;5.00;4.50;;;;;;;17.01;51.40;96781.63;10365593;28;20030;-22
2022/05/01 18:52:44;;;;;;;4.30;3.88;;;;;;;17.02;51.75;96777.41;10357516;28;20038;-24
2022/05/01 18:57:47;;;;;;;4.47;4.07;;;;;;;17.01;51.28;96775.72;10347830;28;20034;-23
2022/05/01 19:02:48;;;;;;;6.25;4.13;;;;;;;17.00;51.57;96774.84;10327175;28;20081;-22
2022/05/01 19:08:08;;;;;;;4.45;4.05;;;;;;;17.00;51.43;96784.16;10348473;28;20160;-23
2022/05/01 19:13:30;;;;;;;4.95;4.15;;;;;;;17.02;51.37;96780.81;10353688;28;20029;-23
2022/05/01 19:19:16;;;;;;;4.97;4.15;;;;;;;17.16;54.68;96783.41;10340094;28;20040;-22
2022/05/01 19:30:10;;;;;;;4.80;4.32;;;;;;;17.13;51.47;96796.88;10360114;28;20056;-24
2022/05/01 19:35:31;;;;;;;4.40;4.00;;;;;;;17.09;51.47;96789.25;10359754;28;20121;-22
2022/05/01 19:40:46;;;;;;;4.20;3.80;;;;;;;17.07;51.64;96793.47;10361026;28;20091;-22
2022/05/01 19:45:52;;;;;;;6.00;3.70;;;;;;;17.04;51.49;96806.94;10362638;28;20457;-23
2022/05/01 19:56:19;;;;;;;5.50;3.47;;;;;;;17.12;51.91;96809.50;10355133;28;20041;-23
2022/05/01 20:01:21;;;;;;;5.00;3.60;;;;;;;17.12;51.82;96805.31;10327037;28;20042;-22
2022/05/01 20:06:22;;;;;;;5.75;4.00;;;;;;;17.15;51.94;96807.84;10324786;28;20096;-23
2022/05/01 20:11:24;;;;;;;4.87;4.37;;;;;;;17.08;52.00;96793.47;10338748;28;20038;-23
2022/05/01 20:16:31;;;;;;;4.50;3.55;;;;;;;17.19;51.75;96806.19;10367132;28;20465;-22
2022/05/01 20:21:31;;;;;;;6.00;3.30;;;;;;;17.27;55.24;96814.66;10346366;28;20039;-27
2022/05/01 20:26:49;;;;;;;4.53;3.67;;;;;;;17.22;55.49;96786.81;10339650;28;20042;-23
2022/05/01 20:32:01;;;;;;;6.63;3.50;;;;;;;17.28;52.89;96802.03;10387560;28;20060;-23
2022/05/01 20:37:18;;;;;;;3.53;3.22;;;;;;;17.26;52.20;96807.91;10339176;28;20077;-23
2022/05/01 20:42:29;;;;;;;3.95;3.55;;;;;;;17.21;52.09;96801.97;10325506;28;20456;-22
2022/05/01 20:47:47;;;;;;;3.90;3.38;;;;;;;17.20;52.22;96803.69;10332634;28;20497;-23
2022/05/01 20:53:03;;;;;;;3.88;3.47;;;;;;;17.21;52.38;96800.31;10333828;28;20534;-23
2022/05/01 20:58:07;;;;;;;3.50;3.17;;;;;;;17.22;52.10;96806.19;10333634;28;20041;-22
2022/05/01 21:03:09;;;;;;;4.25;3.80;;;;;;;17.20;52.10;96803.69;10333300;28;20026;-24
2022/05/01 21:08:10;;;;;;;5.05;3.15;;;;;;;17.13;52.18;96786.75;10334118;28;20045;-23
2022/05/01 21:13:12;;;;;;;3.72;3.10;;;;;;;17.21;52.18;96800.31;10333908;28;20038;-24
2022/05/01 21:18:13;;;;;;;2.97;2.78;;;;;;;17.21;52.35;96791.84;10363868;28;20493;-22
2022/05/01 21:23:14;;;;;;;4.03;3.42;;;;;;;17.24;54.08;96786.84;10332713;28;20121;-22
2022/05/01 21:33:34;;;;;;;6.88;3.10;;;;;;;17.35;55.58;96777.59;10401015;28;20095;-23
2022/05/01 21:38:34;;;;;;;3.15;2.67;;;;;;;17.29;52.84;96777.56;10372428;28;20088;-23
2022/05/01 21:43:38;;;;;;;4.20;2.93;;;;;;;17.25;52.39;96768.28;10341372;28;20038;-23
2022/05/01 21:48:38;;;;;;;4.45;3.40;;;;;;;17.22;52.51;96770.78;10331889;28;20093;-22
2022/05/01 21:53:39;;;;;;;3.30;3.00;;;;;;;17.23;52.41;96765.72;10331885;28;20164;-22
2022/05/01 21:58:39;;;;;;;4.47;2.80;;;;;;;17.22;52.66;96765.72;10330772;28;20030;-22
2022/05/01 22:03:42;;;;;;;6.13;3.00;;;;;;;17.22;52.42;96765.72;10331874;28;20092;-22
2022/05/01 22:08:42;;;;;;;3.40;3.00;;;;;;;17.22;52.21;96758.97;10331543;28;20532;-22
2022/05/01 22:13:43;;;;;;;3.40;3.10;;;;;;;17.21;52.63;96753.91;10330794;28;20117;-23
2022/05/01 22:18:43;;;;;;;4.53;4.13;;;;;;;17.20;52.40;96753.06;10368157;28;20033;-22
2022/05/01 22:23:43;;;;;;;4.37;2.93;;;;;;;17.19;52.67;96745.47;10336389;28;20045;-22
2022/05/01 22:28:44;;;;;;;4.23;3.07;;;;;;;17.24;54.77;96749.72;10330981;28;20490;-22
2022/05/01 22:33:45;;;;;;;4.53;3.53;;;;;;;17.28;55.56;96732.88;10402175;28;20033;-23
2022/05/01 22:38:45;;;;;;;3.25;2.95;;;;;;;17.34;55.82;96730.38;10339133;28;20284;-23
2022/05/01 22:43:46;;;;;;;4.30;3.20;;;;;;;17.27;53.45;96724.44;10360889;28;20042;-24
2022/05/01 22:48:46;;;;;;;3.53;3.00;;;;;;;17.25;52.87;96726.09;10360772;28;20315;-22
2022/05/01 22:53:47;;;;;;;2.60;2.40;;;;;;;17.24;52.77;96723.59;10329633;28;20057;-22
2022/05/01 22:58:47;;;;;;;3.17;2.77;;;;;;;17.21;52.47;96723.53;10361363;28;20041;-24
2022/05/01 23:03:48;;;;;;;3.10;2.70;;;;;;;17.23;52.85;96717.66;10367612;28;20288;-24
2022/05/01 23:08:48;;;;;;;4.20;3.13;;;;;;;17.22;52.63;96715.13;10328702;28;20048;-23
2022/05/01 23:13:48;;;;;;;3.67;2.60;;;;;;;17.16;52.69;96705.00;10355898;28;20084;-23
2022/05/01 23:18:49;;;;;;;3.87;2.57;;;;;;;17.21;52.63;96706.69;10364732;28;20030;-22
2022/05/01 23:23:50;;;;;;;3.08;2.78;;;;;;;17.22;52.72;96705.00;10367531;28;20038;-23
2022/05/01 23:28:50;;;;;;;2.90;2.70;;;;;;;17.21;52.67;96699.09;10335897;28;20453;-22
2022/05/01 23:33:51;;;;;;;3.17;2.60;;;;;;;17.23;52.94;96696.59;10390908;28;20054;-22
2022/05/01 23:38:51;;;;;;;4.72;3.58;;;;;;;17.32;55.81;96694.09;10368615;28;20288;-22
2022/05/01 23:43:51;;;;;;;7.13;3.43;;;;;;;17.35;55.50;96687.38;10335390;28;20044;-22
2022/05/01 23:48:52;;;;;;;3.08;2.75;;;;;;;17.30;53.77;96693.22;10327571;28;20115;-22
2022/05/01 23:53:53;;;;;;;3.83;2.67;;;;;;;17.26;53.08;96682.25;10327606;28;20065;-22
2022/05/01 23:58:54;;;;;;;3.00;2.77;;;;;;;17.25;52.80;96679.72;10360273;28;20017;-23
